sensor_id;sensor_type;location;lat;lon;timestamp;temperature;humidity
24224;DHT22;12359;49.716;9.212;2023-01-30T00:01:03;1.00;1.00
24224;DHT22;12359;49.716;9.212;2023-01-30T00:03:29;1.00;1.00
24224;DHT22;12359;49.716;9.212;2023-01-30T00:05:54;1.10;1.00
24224;DHT22;12359;49.716;9.212;2023-01-30T00:08:20;1.10;1.00
24224;DHT22;12359;49.716;9.212;2023-01-30T00:10:46;1.10;1.00
24224;DHT22;12359;49.716;9.212;2023-01-30T00:13:13;1.20;1.00
24224;DHT22;12359;49.716;9.212;2023-01-30T00:15:40;1.30;1.00
24224;DHT22;12359;49.716;9.212;2023-01-30T00:18:06;1.30;1.00
24224;DHT22;12359;49.716;9.212;2023-01-30T00:20:32;1.40;1.00
24224;DHT22;12359;49.716;9.212;2023-01-30T00:22:58;1.40;1.00
24224;DHT22;12359;49.716;9.212;2023-01-30T00:25:25;1.40;1.00
24224;DHT22;12359;49.716;9.212;2023-01-30T00:27:51;1.40;1.00
24224;DHT22;12359;49.716;9.212;2023-01-30T00:30:17;1.50;1.00
24224;DHT22;12359;49.716;9.212;2023-01-30T00:32:42;1.50;1.00
24224;DHT22;12359;49.716;9.212;2023-01-30T00:35:08;1.50;1.00
24224;DHT22;12359;49.716;9.212;2023-01-30T00:47:40;1.60;1.00
24224;DHT22;12359;49.716;9.212;2023-01-30T00:50:05;1.60;1.00
24224;DHT22;12359;49.716;9.212;2023-01-30T00:52:31;1.60;1.00
24224;DHT22;12359;49.716;9.212;2023-01-30T00:54:57;1.60;1.00
24224;DHT22;12359;49.716;9.212;2023-01-30T00:57:22;1.60;1.00
24224;DHT22;12359;49.716;9.212;2023-01-30T00:59:48;1.60;1.00
24224;DHT22;12359;49.716;9.212;2023-01-30T01:02:14;1.60;1.00
24224;DHT22;12359;49.716;9.212;2023-01-30T01:04:39;1.60;1.00
24224;DHT22;12359;49.716;9.212;2023-01-30T01:07:12;1.60;1.00
24224;DHT22;12359;49.716;9.212;2023-01-30T01:09:38;1.70;1.00
24224;DHT22;12359;49.716;9.212;2023-01-30T01:12:04;1.60;1.00
24224;DHT22;12359;49.716;9.212;2023-01-30T01:14:29;1.60;1.00
24224;DHT22;12359;49.716;9.212;2023-01-30T01:16:55;1.60;1.00
24224;DHT22;12359;49.716;9.212;2023-01-30T01:19:21;1.60;1.00
24224;DHT22;12359;49.716;9.212;2023-01-30T01:21:47;1.60;1.00
24224;DHT22;12359;49.716;9.212;2023-01-30T01:24:14;1.60;1.00
24224;DHT22;12359;49.716;9.212;2023-01-30T01:26:41;1.60;1.00
24224;DHT22;12359;49.716;9.212;2023-01-30T01:29:14;1.70;1.00
24224;DHT22;12359;49.716;9.212;2023-01-30T01:31:40;1.70;1.00
24224;DHT22;12359;49.716;9.212;2023-01-30T01:34:06;1.70;1.00
24224;DHT22;12359;49.716;9.212;2023-01-30T01:36:33;1.80;1.00
24224;DHT22;12359;49.716;9.212;2023-01-30T01:38:59;1.80;1.00
24224;DHT22;12359;49.716;9.212;2023-01-30T01:41:24;1.90;1.00
24224;DHT22;12359;49.716;9.212;2023-01-30T01:44:06;1.90;1.00
24224;DHT22;12359;49.716;9.212;2023-01-30T01:46:56;2.00;1.00
24224;DHT22;12359;49.716;9.212;2023-01-30T01:49:31;2.00;1.00
24224;DHT22;12359;49.716;9.212;2023-01-30T01:52:10;2.10;1.00
24224;DHT22;12359;49.716;9.212;2023-01-30T01:54:44;2.10;1.00
24224;DHT22;12359;49.716;9.212;2023-01-30T01:57:26;2.10;1.00
24224;DHT22;12359;49.716;9.212;2023-01-30T01:59:58;2.20;1.00
24224;DHT22;12359;49.716;9.212;2023-01-30T02:02:25;2.20;1.00
24224;DHT22;12359;49.716;9.212;2023-01-30T02:04:54;2.20;1.00
24224;DHT22;12359;49.716;9.212;2023-01-30T02:13:00;2.20;1.00
24224;DHT22;12359;49.716;9.212;2023-01-30T02:15:25;2.30;1.00
24224;DHT22;12359;49.716;9.212;2023-01-30T02:17:51;2.30;1.00
24224;DHT22;12359;49.716;9.212;2023-01-30T02:35:02;2.30;1.00
24224;DHT22;12359;49.716;9.212;2023-01-30T02:45:35;2.10;1.00
24224;DHT22;12359;49.716;9.212;2023-01-30T02:48:12;2.10;1.00
24224;DHT22;12359;49.716;9.212;2023-01-30T02:50:40;2.00;1.00
24224;DHT22;12359;49.716;9.212;2023-01-30T02:53:07;2.00;1.00
24224;DHT22;12359;49.716;9.212;2023-01-30T02:55:33;2.00;1.00
24224;DHT22;12359;49.716;9.212;2023-01-30T02:58:02;2.00;1.00
24224;DHT22;12359;49.716;9.212;2023-01-30T03:11:23;2.30;1.00
24224;DHT22;12359;49.716;9.212;2023-01-30T03:16:25;2.40;1.00
24224;DHT22;12359;49.716;9.212;2023-01-30T03:18:52;2.50;1.00
24224;DHT22;12359;49.716;9.212;2023-01-30T03:21:18;2.50;1.00
24224;DHT22;12359;49.716;9.212;2023-01-30T03:23:45;2.50;1.00
24224;DHT22;12359;49.716;9.212;2023-01-30T03:26:18;2.50;1.00
24224;DHT22;12359;49.716;9.212;2023-01-30T03:28:47;2.50;1.00
24224;DHT22;12359;49.716;9.212;2023-01-30T03:31:13;2.50;1.00
24224;DHT22;12359;49.716;9.212;2023-01-30T03:33:39;2.50;1.00
24224;DHT22;12359;49.716;9.212;2023-01-30T03:36:05;2.50;1.00
24224;DHT22;12359;49.716;9.212;2023-01-30T03:38:30;2.50;1.00
24224;DHT22;12359;49.716;9.212;2023-01-30T03:40:56;2.50;1.00
24224;DHT22;12359;49.716;9.212;2023-01-30T03:43:22;2.60;1.00
24224;DHT22;12359;49.716;9.212;2023-01-30T03:45:47;2.50;1.00
24224;DHT22;12359;49.716;9.212;2023-01-30T03:48:13;2.50;1.00
24224;DHT22;12359;49.716;9.212;2023-01-30T03:50:39;2.50;1.00
24224;DHT22;12359;49.716;9.212;2023-01-30T03:53:04;2.50;1.00
24224;DHT22;12359;49.716;9.212;2023-01-30T03:55:30;2.40;1.00
24224;DHT22;12359;49.716;9.212;2023-01-30T03:57:56;2.50;1.00
24224;DHT22;12359;49.716;9.212;2023-01-30T04:00:22;2.40;1.00
24224;DHT22;12359;49.716;9.212;2023-01-30T04:02:47;2.40;1.00
24224;DHT22;12359;49.716;9.212;2023-01-30T04:05:13;2.40;1.00
24224;DHT22;12359;49.716;9.212;2023-01-30T04:07:39;2.40;1.00
24224;DHT22;12359;49.716;9.212;2023-01-30T04:10:05;2.40;1.00
24224;DHT22;12359;49.716;9.212;2023-01-30T04:12:30;2.40;1.00
24224;DHT22;12359;49.716;9.212;2023-01-30T04:14:56;2.40;1.00
24224;DHT22;12359;49.716;9.212;2023-01-30T04:17:22;2.40;1.00
24224;DHT22;12359;49.716;9.212;2023-01-30T04:19:47;2.40;1.00
24224;DHT22;12359;49.716;9.212;2023-01-30T04:22:13;2.40;1.00
24224;DHT22;12359;49.716;9.212;2023-01-30T04:24:39;2.40;1.00
24224;DHT22;12359;49.716;9.212;2023-01-30T04:27:04;2.40;1.00
24224;DHT22;12359;49.716;9.212;2023-01-30T04:29:30;2.40;1.00
24224;DHT22;12359;49.716;9.212;2023-01-30T04:31:56;2.40;1.00
24224;DHT22;12359;49.716;9.212;2023-01-30T04:34:21;2.50;1.00
24224;DHT22;12359;49.716;9.212;2023-01-30T04:36:47;2.40;1.00
24224;DHT22;12359;49.716;9.212;2023-01-30T04:39:12;2.50;1.00
24224;DHT22;12359;49.716;9.212;2023-01-30T04:41:38;2.50;1.00
24224;DHT22;12359;49.716;9.212;2023-01-30T04:44:04;2.50;1.00
24224;DHT22;12359;49.716;9.212;2023-01-30T04:46:30;2.50;1.00
24224;DHT22;12359;49.716;9.212;2023-01-30T04:48:55;2.50;1.00
24224;DHT22;12359;49.716;9.212;2023-01-30T04:51:21;2.50;1.00
24224;DHT22;12359;49.716;9.212;2023-01-30T04:53:47;2.50;1.00
24224;DHT22;12359;49.716;9.212;2023-01-30T04:56:13;2.50;1.00
24224;DHT22;12359;49.716;9.212;2023-01-30T04:58:38;2.50;1.00
24224;DHT22;12359;49.716;9.212;2023-01-30T05:03:39;2.40;1.00
24224;DHT22;12359;49.716;9.212;2023-01-30T05:06:05;2.50;1.00
24224;DHT22;12359;49.716;9.212;2023-01-30T05:08:30;2.50;1.00
24224;DHT22;12359;49.716;9.212;2023-01-30T05:10:56;2.50;1.00
24224;DHT22;12359;49.716;9.212;2023-01-30T05:13:22;2.50;1.00
24224;DHT22;12359;49.716;9.212;2023-01-30T05:15:48;2.50;1.00
24224;DHT22;12359;49.716;9.212;2023-01-30T05:18:13;2.50;1.00
24224;DHT22;12359;49.716;9.212;2023-01-30T05:20:39;2.50;1.00
24224;DHT22;12359;49.716;9.212;2023-01-30T05:23:05;2.50;1.00
24224;DHT22;12359;49.716;9.212;2023-01-30T05:25:30;2.50;1.00
24224;DHT22;12359;49.716;9.212;2023-01-30T05:27:56;2.50;1.00
24224;DHT22;12359;49.716;9.212;2023-01-30T05:30:22;2.60;1.00
24224;DHT22;12359;49.716;9.212;2023-01-30T05:32:47;2.60;1.00
24224;DHT22;12359;49.716;9.212;2023-01-30T05:35:13;2.60;1.00
24224;DHT22;12359;49.716;9.212;2023-01-30T05:37:38;2.50;1.00
24224;DHT22;12359;49.716;9.212;2023-01-30T05:40:04;2.60;1.00
24224;DHT22;12359;49.716;9.212;2023-01-30T05:42:30;2.50;1.00
24224;DHT22;12359;49.716;9.212;2023-01-30T05:44:56;2.50;1.00
24224;DHT22;12359;49.716;9.212;2023-01-30T05:47:22;2.50;1.00
24224;DHT22;12359;49.716;9.212;2023-01-30T05:49:47;2.50;1.00
24224;DHT22;12359;49.716;9.212;2023-01-30T05:52:13;2.50;1.00
24224;DHT22;12359;49.716;9.212;2023-01-30T05:54:39;2.50;1.00
24224;DHT22;12359;49.716;9.212;2023-01-30T05:57:04;2.50;1.00
24224;DHT22;12359;49.716;9.212;2023-01-30T05:59:30;2.50;1.00
24224;DHT22;12359;49.716;9.212;2023-01-30T06:01:56;2.50;1.00
24224;DHT22;12359;49.716;9.212;2023-01-30T06:04:21;2.50;1.00
24224;DHT22;12359;49.716;9.212;2023-01-30T06:06:48;2.50;1.00
24224;DHT22;12359;49.716;9.212;2023-01-30T06:09:15;2.50;1.00
24224;DHT22;12359;49.716;9.212;2023-01-30T06:11:40;2.60;1.00
24224;DHT22;12359;49.716;9.212;2023-01-30T06:14:06;2.60;1.00
24224;DHT22;12359;49.716;9.212;2023-01-30T06:16:32;2.60;1.00
24224;DHT22;12359;49.716;9.212;2023-01-30T06:18:57;2.70;1.00
24224;DHT22;12359;49.716;9.212;2023-01-30T06:21:23;2.60;1.00
24224;DHT22;12359;49.716;9.212;2023-01-30T06:23:49;2.60;1.00
24224;DHT22;12359;49.716;9.212;2023-01-30T06:26:14;2.70;1.00
24224;DHT22;12359;49.716;9.212;2023-01-30T06:28:40;2.60;1.00
24224;DHT22;12359;49.716;9.212;2023-01-30T06:31:07;2.60;1.00
24224;DHT22;12359;49.716;9.212;2023-01-30T06:33:33;2.70;1.00
24224;DHT22;12359;49.716;9.212;2023-01-30T06:35:58;2.70;1.00
24224;DHT22;12359;49.716;9.212;2023-01-30T06:38:24;2.70;1.00
24224;DHT22;12359;49.716;9.212;2023-01-30T06:40:50;2.70;1.00
24224;DHT22;12359;49.716;9.212;2023-01-30T06:43:16;2.70;1.00
24224;DHT22;12359;49.716;9.212;2023-01-30T06:45:42;2.70;1.00
24224;DHT22;12359;49.716;9.212;2023-01-30T06:48:08;2.70;1.00
24224;DHT22;12359;49.716;9.212;2023-01-30T06:50:34;2.70;1.00
24224;DHT22;12359;49.716;9.212;2023-01-30T06:53:04;2.70;1.00
24224;DHT22;12359;49.716;9.212;2023-01-30T06:55:32;2.70;1.00
24224;DHT22;12359;49.716;9.212;2023-01-30T06:58:03;2.70;1.00
24224;DHT22;12359;49.716;9.212;2023-01-30T07:00:29;2.70;1.00
24224;DHT22;12359;49.716;9.212;2023-01-30T07:02:55;2.80;1.00
24224;DHT22;12359;49.716;9.212;2023-01-30T07:05:21;2.80;1.00
24224;DHT22;12359;49.716;9.212;2023-01-30T07:07:47;2.80;1.00
24224;DHT22;12359;49.716;9.212;2023-01-30T07:10:12;2.90;1.00
24224;DHT22;12359;49.716;9.212;2023-01-30T07:12:38;2.90;1.00
24224;DHT22;12359;49.716;9.212;2023-01-30T07:15:05;2.90;1.00
24224;DHT22;12359;49.716;9.212;2023-01-30T07:17:31;2.90;1.00
24224;DHT22;12359;49.716;9.212;2023-01-30T07:19:57;2.90;1.00
24224;DHT22;12359;49.716;9.212;2023-01-30T07:22:23;3.00;1.00
24224;DHT22;12359;49.716;9.212;2023-01-30T07:24:49;2.90;1.00
24224;DHT22;12359;49.716;9.212;2023-01-30T07:27:14;2.90;1.00
24224;DHT22;12359;49.716;9.212;2023-01-30T07:29:40;3.00;1.00
24224;DHT22;12359;49.716;9.212;2023-01-30T07:32:07;3.00;1.00
24224;DHT22;12359;49.716;9.212;2023-01-30T07:34:35;3.00;1.00
24224;DHT22;12359;49.716;9.212;2023-01-30T07:37:01;3.00;1.00
24224;DHT22;12359;49.716;9.212;2023-01-30T07:39:27;3.00;1.00
24224;DHT22;12359;49.716;9.212;2023-01-30T07:41:52;3.10;1.00
24224;DHT22;12359;49.716;9.212;2023-01-30T07:44:18;3.00;1.00
24224;DHT22;12359;49.716;9.212;2023-01-30T07:46:44;3.10;1.00
24224;DHT22;12359;49.716;9.212;2023-01-30T07:49:09;3.10;1.00
24224;DHT22;12359;49.716;9.212;2023-01-30T07:51:35;3.10;1.00
24224;DHT22;12359;49.716;9.212;2023-01-30T07:54:01;3.10;1.00
24224;DHT22;12359;49.716;9.212;2023-01-30T07:56:28;3.20;1.00
24224;DHT22;12359;49.716;9.212;2023-01-30T07:58:55;3.20;1.00
24224;DHT22;12359;49.716;9.212;2023-01-30T08:01:21;3.20;1.00
24224;DHT22;12359;49.716;9.212;2023-01-30T08:03:47;3.10;1.00
24224;DHT22;12359;49.716;9.212;2023-01-30T08:06:14;3.20;1.00
24224;DHT22;12359;49.716;9.212;2023-01-30T08:08:41;3.20;1.00
24224;DHT22;12359;49.716;9.212;2023-01-30T08:11:07;3.10;1.00
24224;DHT22;12359;49.716;9.212;2023-01-30T08:13:32;3.10;1.00
24224;DHT22;12359;49.716;9.212;2023-01-30T08:16:02;3.20;1.00
24224;DHT22;12359;49.716;9.212;2023-01-30T08:18:29;3.20;1.00
24224;DHT22;12359;49.716;9.212;2023-01-30T08:21:03;3.20;1.00
24224;DHT22;12359;49.716;9.212;2023-01-30T08:23:29;3.20;1.00
24224;DHT22;12359;49.716;9.212;2023-01-30T08:25:57;3.20;1.00
24224;DHT22;12359;49.716;9.212;2023-01-30T08:28:23;3.20;1.00
24224;DHT22;12359;49.716;9.212;2023-01-30T08:30:49;3.20;1.00
24224;DHT22;12359;49.716;9.212;2023-01-30T08:33:16;3.20;1.00
24224;DHT22;12359;49.716;9.212;2023-01-30T08:35:42;3.20;1.00
24224;DHT22;12359;49.716;9.212;2023-01-30T08:38:08;3.30;1.00
24224;DHT22;12359;49.716;9.212;2023-01-30T08:40:34;3.30;1.00
24224;DHT22;12359;49.716;9.212;2023-01-30T08:43:00;3.30;1.00
24224;DHT22;12359;49.716;9.212;2023-01-30T08:45:26;3.40;1.00
24224;DHT22;12359;49.716;9.212;2023-01-30T08:47:51;3.40;1.00
24224;DHT22;12359;49.716;9.212;2023-01-30T08:50:17;3.50;1.00
24224;DHT22;12359;49.716;9.212;2023-01-30T08:52:43;3.50;1.00
24224;DHT22;12359;49.716;9.212;2023-01-30T08:55:09;3.70;1.00
24224;DHT22;12359;49.716;9.212;2023-01-30T08:57:35;3.80;1.00
24224;DHT22;12359;49.716;9.212;2023-01-30T09:00:01;3.80;1.00
24224;DHT22;12359;49.716;9.212;2023-01-30T09:02:27;3.80;1.00
24224;DHT22;12359;49.716;9.212;2023-01-30T09:04:52;3.90;1.00
24224;DHT22;12359;49.716;9.212;2023-01-30T09:07:18;3.90;1.00
24224;DHT22;12359;49.716;9.212;2023-01-30T09:09:44;4.00;1.00
24224;DHT22;12359;49.716;9.212;2023-01-30T09:12:10;4.00;1.00
24224;DHT22;12359;49.716;9.212;2023-01-30T09:14:35;4.00;99.90
24224;DHT22;12359;49.716;9.212;2023-01-30T09:17:01;4.10;1.00
24224;DHT22;12359;49.716;9.212;2023-01-30T09:19:27;4.10;1.00
24224;DHT22;12359;49.716;9.212;2023-01-30T09:21:54;4.10;1.00
24224;DHT22;12359;49.716;9.212;2023-01-30T09:24:21;4.10;99.90
24224;DHT22;12359;49.716;9.212;2023-01-30T09:26:51;4.10;1.00
24224;DHT22;12359;49.716;9.212;2023-01-30T09:29:17;4.20;99.90
24224;DHT22;12359;49.716;9.212;2023-01-30T09:31:43;4.20;99.90
24224;DHT22;12359;49.716;9.212;2023-01-30T09:34:10;4.20;99.90
24224;DHT22;12359;49.716;9.212;2023-01-30T09:36:35;4.30;99.90
24224;DHT22;12359;49.716;9.212;2023-01-30T09:39:01;4.30;99.90
24224;DHT22;12359;49.716;9.212;2023-01-30T09:41:47;4.30;99.90
24224;DHT22;12359;49.716;9.212;2023-01-30T09:47:14;4.30;99.90
24224;DHT22;12359;49.716;9.212;2023-01-30T09:55:30;4.50;99.90
24224;DHT22;12359;49.716;9.212;2023-01-30T09:57:58;4.40;99.90
24224;DHT22;12359;49.716;9.212;2023-01-30T10:00:59;4.40;1.00
24224;DHT22;12359;49.716;9.212;2023-01-30T10:03:28;4.40;1.00
24224;DHT22;12359;49.716;9.212;2023-01-30T10:06:04;4.30;1.00
24224;DHT22;12359;49.716;9.212;2023-01-30T10:16:39;4.40;1.00
24224;DHT22;12359;49.716;9.212;2023-01-30T10:27:13;4.70;1.00
24224;DHT22;12359;49.716;9.212;2023-01-30T10:29:44;4.70;1.00
24224;DHT22;12359;49.716;9.212;2023-01-30T10:32:19;4.80;99.90
24224;DHT22;12359;49.716;9.212;2023-01-30T10:34:50;4.80;1.00
24224;DHT22;12359;49.716;9.212;2023-01-30T10:37:31;4.90;1.00
24224;DHT22;12359;49.716;9.212;2023-01-30T10:48:48;6.30;99.90
24224;DHT22;12359;49.716;9.212;2023-01-30T10:54:13;6.80;1.00
24224;DHT22;12359;49.716;9.212;2023-01-30T11:04:59;6.00;99.90
24224;DHT22;12359;49.716;9.212;2023-01-30T11:07:30;5.60;63.70
24224;DHT22;12359;49.716;9.212;2023-01-30T11:09:58;5.50;99.90
24224;DHT22;12359;49.716;9.212;2023-01-30T11:12:24;5.40;99.90
24224;DHT22;12359;49.716;9.212;2023-01-30T11:14:56;5.30;99.90
24224;DHT22;12359;49.716;9.212;2023-01-30T11:17:43;5.40;99.90
24224;DHT22;12359;49.716;9.212;2023-01-30T11:22:50;5.50;99.90
24224;DHT22;12359;49.716;9.212;2023-01-30T11:25:19;5.50;99.90
24224;DHT22;12359;49.716;9.212;2023-01-30T11:28:00;5.60;99.90
24224;DHT22;12359;49.716;9.212;2023-01-30T11:30:28;5.80;99.90
24224;DHT22;12359;49.716;9.212;2023-01-30T11:33:05;6.00;36.10
24224;DHT22;12359;49.716;9.212;2023-01-30T11:35:40;6.30;60.30
24224;DHT22;12359;49.716;9.212;2023-01-30T11:38:18;6.50;1.00
24224;DHT22;12359;49.716;9.212;2023-01-30T11:40:44;6.40;99.90
24224;DHT22;12359;49.716;9.212;2023-01-30T11:43:12;6.40;99.90
24224;DHT22;12359;49.716;9.212;2023-01-30T11:45:44;6.30;1.00
24224;DHT22;12359;49.716;9.212;2023-01-30T11:48:19;6.10;1.00
24224;DHT22;12359;49.716;9.212;2023-01-30T11:50:48;5.90;8.70
24224;DHT22;12359;49.716;9.212;2023-01-30T11:55:58;6.00;97.80
24224;DHT22;12359;49.716;9.212;2023-01-30T11:58:29;6.10;94.50
24224;DHT22;12359;49.716;9.212;2023-01-30T12:00:55;6.40;1.00
24224;DHT22;12359;49.716;9.212;2023-01-30T12:03:22;6.50;1.00
24224;DHT22;12359;49.716;9.212;2023-01-30T12:05:50;6.50;1.00
24224;DHT22;12359;49.716;9.212;2023-01-30T12:10:50;6.20;1.00
24224;DHT22;12359;49.716;9.212;2023-01-30T12:13:37;6.20;1.00
24224;DHT22;12359;49.716;9.212;2023-01-30T12:16:13;6.30;1.00
24224;DHT22;12359;49.716;9.212;2023-01-30T12:22:08;6.30;1.00
24224;DHT22;12359;49.716;9.212;2023-01-30T12:27:09;6.20;1.00
24224;DHT22;12359;49.716;9.212;2023-01-30T12:29:49;6.10;16.30
24224;DHT22;12359;49.716;9.212;2023-01-30T12:32:21;6.00;20.90
24224;DHT22;12359;49.716;9.212;2023-01-30T12:34:47;6.00;84.00
24224;DHT22;12359;49.716;9.212;2023-01-30T13:06:06;6.40;1.00
24224;DHT22;12359;49.716;9.212;2023-01-30T13:20:02;6.30;1.00
24224;DHT22;12359;49.716;9.212;2023-01-30T13:25:36;6.20;3.50
24224;DHT22;12359;49.716;9.212;2023-01-30T13:28:15;6.40;10.20
24224;DHT22;12359;49.716;9.212;2023-01-30T13:30:43;6.60;1.00
24224;DHT22;12359;49.716;9.212;2023-01-30T13:33:18;6.80;99.90
24224;DHT22;12359;49.716;9.212;2023-01-30T13:35:51;6.80;99.90
24224;DHT22;12359;49.716;9.212;2023-01-30T13:38:25;6.80;99.90
24224;DHT22;12359;49.716;9.212;2023-01-30T13:40:55;6.80;99.90
24224;DHT22;12359;49.716;9.212;2023-01-30T13:43:26;6.80;99.90
24224;DHT22;12359;49.716;9.212;2023-01-30T13:45:54;6.70;99.90
24224;DHT22;12359;49.716;9.212;2023-01-30T13:51:35;6.50;99.90
24224;DHT22;12359;49.716;9.212;2023-01-30T13:54:25;6.50;99.90
24224;DHT22;12359;49.716;9.212;2023-01-30T13:57:33;6.40;1.00
24224;DHT22;12359;49.716;9.212;2023-01-30T14:00:33;6.30;1.00
24224;DHT22;12359;49.716;9.212;2023-01-30T14:08:39;6.40;15.10
24224;DHT22;12359;49.716;9.212;2023-01-30T14:11:37;6.30;99.90
24224;DHT22;12359;49.716;9.212;2023-01-30T14:16:54;6.30;99.90
24224;DHT22;12359;49.716;9.212;2023-01-30T14:19:21;6.20;1.00
24224;DHT22;12359;49.716;9.212;2023-01-30T14:24:39;6.20;99.90
24224;DHT22;12359;49.716;9.212;2023-01-30T14:27:23;6.20;99.90
24224;DHT22;12359;49.716;9.212;2023-01-30T14:29:52;6.10;99.90
24224;DHT22;12359;49.716;9.212;2023-01-30T14:37:27;6.10;1.00
24224;DHT22;12359;49.716;9.212;2023-01-30T14:39:54;6.10;99.90
24224;DHT22;12359;49.716;9.212;2023-01-30T14:42:25;6.00;99.90
24224;DHT22;12359;49.716;9.212;2023-01-30T14:45:00;6.00;99.90
24224;DHT22;12359;49.716;9.212;2023-01-30T14:47:28;6.00;99.90
24224;DHT22;12359;49.716;9.212;2023-01-30T14:49:54;6.00;99.90
24224;DHT22;12359;49.716;9.212;2023-01-30T14:52:53;6.00;99.90
24224;DHT22;12359;49.716;9.212;2023-01-30T14:55:25;5.90;99.90
24224;DHT22;12359;49.716;9.212;2023-01-30T14:57:57;6.00;99.90
24224;DHT22;12359;49.716;9.212;2023-01-30T15:00:28;5.80;99.90
24224;DHT22;12359;49.716;9.212;2023-01-30T15:02:59;5.70;99.90
24224;DHT22;12359;49.716;9.212;2023-01-30T15:05:46;5.70;99.90
24224;DHT22;12359;49.716;9.212;2023-01-30T15:08:22;5.70;99.90
24224;DHT22;12359;49.716;9.212;2023-01-30T15:13:58;5.70;99.90
24224;DHT22;12359;49.716;9.212;2023-01-30T15:16:56;5.70;1.00
24224;DHT22;12359;49.716;9.212;2023-01-30T15:25:32;5.60;1.00
24224;DHT22;12359;49.716;9.212;2023-01-30T15:28:06;5.50;1.00
24224;DHT22;12359;49.716;9.212;2023-01-30T15:30:54;5.50;1.00
24224;DHT22;12359;49.716;9.212;2023-01-30T15:33:24;5.50;1.00
24224;DHT22;12359;49.716;9.212;2023-01-30T15:35:51;5.40;1.00
24224;DHT22;12359;49.716;9.212;2023-01-30T15:38:30;5.40;1.00
24224;DHT22;12359;49.716;9.212;2023-01-30T15:41:01;5.40;1.00
24224;DHT22;12359;49.716;9.212;2023-01-30T15:46:16;5.40;1.00
24224;DHT22;12359;49.716;9.212;2023-01-30T15:51:30;5.40;1.00
24224;DHT22;12359;49.716;9.212;2023-01-30T15:54:00;5.30;1.00
24224;DHT22;12359;49.716;9.212;2023-01-30T15:56:29;5.30;1.00
24224;DHT22;12359;49.716;9.212;2023-01-30T15:58:57;5.30;1.00
24224;DHT22;12359;49.716;9.212;2023-01-30T16:01:24;5.40;1.00
24224;DHT22;12359;49.716;9.212;2023-01-30T16:03:50;5.30;1.00
24224;DHT22;12359;49.716;9.212;2023-01-30T16:09:03;5.20;1.00
24224;DHT22;12359;49.716;9.212;2023-01-30T16:11:34;5.20;1.00
24224;DHT22;12359;49.716;9.212;2023-01-30T16:14:00;5.10;1.00
24224;DHT22;12359;49.716;9.212;2023-01-30T16:16:26;5.10;1.00
24224;DHT22;12359;49.716;9.212;2023-01-30T16:18:56;5.00;1.00
24224;DHT22;12359;49.716;9.212;2023-01-30T16:21:31;5.00;1.00
24224;DHT22;12359;49.716;9.212;2023-01-30T16:24:07;5.00;1.00
24224;DHT22;12359;49.716;9.212;2023-01-30T16:26:42;4.90;1.00
24224;DHT22;12359;49.716;9.212;2023-01-30T16:29:14;4.90;1.00
24224;DHT22;12359;49.716;9.212;2023-01-30T16:31:41;4.90;1.00
24224;DHT22;12359;49.716;9.212;2023-01-30T16:34:33;4.90;1.00
24224;DHT22;12359;49.716;9.212;2023-01-30T16:37:26;4.90;1.00
24224;DHT22;12359;49.716;9.212;2023-01-30T16:43:13;4.90;1.00
24224;DHT22;12359;49.716;9.212;2023-01-30T16:50:48;5.00;1.00
24224;DHT22;12359;49.716;9.212;2023-01-30T16:53:30;4.90;1.00
24224;DHT22;12359;49.716;9.212;2023-01-30T16:56:07;4.90;1.00
24224;DHT22;12359;49.716;9.212;2023-01-30T16:58:35;4.90;1.00
24224;DHT22;12359;49.716;9.212;2023-01-30T17:01:04;4.90;1.00
24224;DHT22;12359;49.716;9.212;2023-01-30T17:03:31;4.90;1.00
24224;DHT22;12359;49.716;9.212;2023-01-30T17:06:01;5.00;1.00
24224;DHT22;12359;49.716;9.212;2023-01-30T17:09:04;5.00;1.00
24224;DHT22;12359;49.716;9.212;2023-01-30T17:11:36;5.00;1.00
24224;DHT22;12359;49.716;9.212;2023-01-30T17:16:40;5.10;1.00
24224;DHT22;12359;49.716;9.212;2023-01-30T17:19:07;5.10;1.00
24224;DHT22;12359;49.716;9.212;2023-01-30T17:21:47;5.10;1.00
24224;DHT22;12359;49.716;9.212;2023-01-30T17:24:18;5.10;1.00
24224;DHT22;12359;49.716;9.212;2023-01-30T17:26:46;5.10;1.00
24224;DHT22;12359;49.716;9.212;2023-01-30T17:29:13;5.20;1.00
24224;DHT22;12359;49.716;9.212;2023-01-30T17:31:48;5.20;1.00
24224;DHT22;12359;49.716;9.212;2023-01-30T17:34:15;5.20;1.00
24224;DHT22;12359;49.716;9.212;2023-01-30T17:36:42;5.20;1.00
24224;DHT22;12359;49.716;9.212;2023-01-30T17:39:15;5.20;1.00
24224;DHT22;12359;49.716;9.212;2023-01-30T17:41:42;5.20;1.00
24224;DHT22;12359;49.716;9.212;2023-01-30T17:44:08;5.30;1.00
24224;DHT22;12359;49.716;9.212;2023-01-30T17:46:38;5.30;1.00
24224;DHT22;12359;49.716;9.212;2023-01-30T17:51:38;5.30;1.00
24224;DHT22;12359;49.716;9.212;2023-01-30T17:54:04;5.30;1.00
24224;DHT22;12359;49.716;9.212;2023-01-30T17:56:34;5.30;1.00
24224;DHT22;12359;49.716;9.212;2023-01-30T17:59:14;5.30;1.00
24224;DHT22;12359;49.716;9.212;2023-01-30T18:01:48;5.40;1.00
24224;DHT22;12359;49.716;9.212;2023-01-30T18:04:14;5.40;1.00
24224;DHT22;12359;49.716;9.212;2023-01-30T18:06:42;5.40;1.00
24224;DHT22;12359;49.716;9.212;2023-01-30T18:09:14;5.40;1.00
24224;DHT22;12359;49.716;9.212;2023-01-30T18:11:40;5.40;1.00
24224;DHT22;12359;49.716;9.212;2023-01-30T18:14:06;5.40;1.00
24224;DHT22;12359;49.716;9.212;2023-01-30T18:16:31;5.40;1.00
24224;DHT22;12359;49.716;9.212;2023-01-30T18:19:01;5.40;1.00
24224;DHT22;12359;49.716;9.212;2023-01-30T18:21:30;5.40;1.00
24224;DHT22;12359;49.716;9.212;2023-01-30T18:23:56;5.50;1.00
24224;DHT22;12359;49.716;9.212;2023-01-30T18:26:22;5.50;1.00
24224;DHT22;12359;49.716;9.212;2023-01-30T18:28:48;5.40;1.00
24224;DHT22;12359;49.716;9.212;2023-01-30T18:31:14;5.40;1.00
24224;DHT22;12359;49.716;9.212;2023-01-30T18:33:40;5.40;1.00
24224;DHT22;12359;49.716;9.212;2023-01-30T18:36:11;5.40;1.00
24224;DHT22;12359;49.716;9.212;2023-01-30T18:38:37;5.40;1.00
24224;DHT22;12359;49.716;9.212;2023-01-30T18:41:11;5.40;1.00
24224;DHT22;12359;49.716;9.212;2023-01-30T18:43:36;5.40;1.00
24224;DHT22;12359;49.716;9.212;2023-01-30T18:46:07;5.40;1.00
24224;DHT22;12359;49.716;9.212;2023-01-30T18:48:34;5.40;1.00
24224;DHT22;12359;49.716;9.212;2023-01-30T18:53:40;5.40;1.00
24224;DHT22;12359;49.716;9.212;2023-01-30T18:56:14;5.50;1.00
24224;DHT22;12359;49.716;9.212;2023-01-30T18:58:40;5.50;1.00
24224;DHT22;12359;49.716;9.212;2023-01-30T19:01:11;5.40;1.00
24224;DHT22;12359;49.716;9.212;2023-01-30T19:03:38;5.40;1.00
24224;DHT22;12359;49.716;9.212;2023-01-30T19:06:04;5.40;1.00
24224;DHT22;12359;49.716;9.212;2023-01-30T19:08:30;5.40;1.00
24224;DHT22;12359;49.716;9.212;2023-01-30T19:11:03;5.40;1.00
24224;DHT22;12359;49.716;9.212;2023-01-30T19:13:49;5.50;1.00
24224;DHT22;12359;49.716;9.212;2023-01-30T19:16:15;5.50;1.00
24224;DHT22;12359;49.716;9.212;2023-01-30T19:18:40;5.40;1.00
24224;DHT22;12359;49.716;9.212;2023-01-30T19:21:06;5.40;1.00
24224;DHT22;12359;49.716;9.212;2023-01-30T19:23:32;5.40;1.00
24224;DHT22;12359;49.716;9.212;2023-01-30T19:25:58;5.40;1.00
24224;DHT22;12359;49.716;9.212;2023-01-30T19:28:25;5.40;1.00
24224;DHT22;12359;49.716;9.212;2023-01-30T19:30:51;5.50;1.00
24224;DHT22;12359;49.716;9.212;2023-01-30T19:33:17;5.50;1.00
24224;DHT22;12359;49.716;9.212;2023-01-30T19:35:43;5.60;1.00
24224;DHT22;12359;49.716;9.212;2023-01-30T19:38:09;5.60;1.00
24224;DHT22;12359;49.716;9.212;2023-01-30T19:40:40;5.60;1.00